sensor_id;sensor_type;location;lat;lon;timestamp;pressure;altitude;pressure_sealevel;temperature;humidity
10261;BME280;5175;42.606;23.388;2023-05-07T00:01:36;93984.69;;;10.28;100.00
10261;BME280;5175;42.606;23.388;2023-05-07T00:04:03;93978.53;;;10.27;100.00
10261;BME280;5175;42.606;23.388;2023-05-07T00:06:30;93978.28;;;10.29;100.00
10261;BME280;5175;42.606;23.388;2023-05-07T00:08:58;93978.03;;;10.20;100.00
10261;BME280;5175;42.606;23.388;2023-05-07T00:11:26;93985.75;;;10.27;100.00
10261;BME280;5175;42.606;23.388;2023-05-07T00:13:53;93990.53;;;10.35;100.00
10261;BME280;5175;42.606;23.388;2023-05-07T00:16:21;93974.56;;;10.20;100.00
10261;BME280;5175;42.606;23.388;2023-05-07T00:18:48;93985.78;;;10.22;100.00
10261;BME280;5175;42.606;23.388;2023-05-07T00:21:14;93991.66;;;9.93;100.00
10261;BME280;5175;42.606;23.388;2023-05-07T00:23:41;93997.78;;;10.09;100.00
10261;BME280;5175;42.606;23.388;2023-05-07T00:26:08;93997.78;;;10.19;100.00
10261;BME280;5175;42.606;23.388;2023-05-07T00:28:35;93993.47;;;10.28;100.00
10261;BME280;5175;42.606;23.388;2023-05-07T00:31:02;93994.56;;;10.22;100.00
10261;BME280;5175;42.606;23.388;2023-05-07T00:33:30;93970.03;;;10.15;100.00
10261;BME280;5175;42.606;23.388;2023-05-07T00:35:56;93967.13;;;10.17;100.00
10261;BME280;5175;42.606;23.388;2023-05-07T00:38:23;93995.88;;;10.25;100.00
10261;BME280;5175;42.606;23.388;2023-05-07T00:40:50;93991.63;;;10.08;100.00
10261;BME280;5175;42.606;23.388;2023-05-07T00:43:17;93996.47;;;9.81;100.00
10261;BME280;5175;42.606;23.388;2023-05-07T00:45:44;93955.72;;;9.51;100.00
10261;BME280;5175;42.606;23.388;2023-05-07T00:48:11;93995.94;;;9.74;100.00
10261;BME280;5175;42.606;23.388;2023-05-07T00:50:39;93981.56;;;9.75;100.00
10261;BME280;5175;42.606;23.388;2023-05-07T00:53:06;93993.00;;;9.86;100.00
10261;BME280;5175;42.606;23.388;2023-05-07T00:55:33;93988.47;;;9.71;100.00
10261;BME280;5175;42.606;23.388;2023-05-07T00:58:00;93986.63;;;9.57;100.00
10261;BME280;5175;42.606;23.388;2023-05-07T01:00:27;93971.44;;;9.37;100.00
10261;BME280;5175;42.606;23.388;2023-05-07T01:02:53;93989.00;;;9.43;100.00
10261;BME280;5175;42.606;23.388;2023-05-07T01:05:23;93987.44;;;9.37;100.00
10261;BME280;5175;42.606;23.388;2023-05-07T01:07:52;93988.47;;;9.36;100.00
10261;BME280;5175;42.606;23.388;2023-05-07T01:10:20;93997.28;;;9.26;100.00
10261;BME280;5175;42.606;23.388;2023-05-07T01:12:48;93999.63;;;9.13;100.00
10261;BME280;5175;42.606;23.388;2023-05-07T01:15:17;93993.78;;;9.06;100.00
10261;BME280;5175;42.606;23.388;2023-05-07T01:17:44;93994.56;;;9.06;100.00
10261;BME280;5175;42.606;23.388;2023-05-07T01:20:11;93998.84;;;9.17;100.00
10261;BME280;5175;42.606;23.388;2023-05-07T01:22:40;94003.13;;;9.33;100.00
10261;BME280;5175;42.606;23.388;2023-05-07T01:25:07;93996.19;;;9.42;100.00
10261;BME280;5175;42.606;23.388;2023-05-07T01:27:35;93982.91;;;9.53;100.00
10261;BME280;5175;42.606;23.388;2023-05-07T01:30:02;93988.47;;;9.71;100.00
10261;BME280;5175;42.606;23.388;2023-05-07T01:32:32;93996.47;;;9.81;100.00
10261;BME280;5175;42.606;23.388;2023-05-07T01:35:01;93990.88;;;9.83;100.00
10261;BME280;5175;42.606;23.388;2023-05-07T01:37:29;93982.59;;;9.89;100.00
10261;BME280;5175;42.606;23.388;2023-05-07T01:39:57;93973.00;;;9.93;100.00
10261;BME280;5175;42.606;23.388;2023-05-07T01:42:24;93972.44;;;10.01;100.00
10261;BME280;5175;42.606;23.388;2023-05-07T01:44:51;93985.00;;;10.01;100.00
10261;BME280;5175;42.606;23.388;2023-05-07T01:47:18;93963.94;;;9.94;100.00
10261;BME280;5175;42.606;23.388;2023-05-07T01:49:46;93972.22;;;9.88;100.00
10261;BME280;5175;42.606;23.388;2023-05-07T01:52:13;93970.91;;;9.80;100.00
10261;BME280;5175;42.606;23.388;2023-05-07T01:54:40;93972.22;;;9.78;100.00
10261;BME280;5175;42.606;23.388;2023-05-07T01:57:09;93959.16;;;9.71;100.00
10261;BME280;5175;42.606;23.388;2023-05-07T01:59:36;93959.69;;;9.73;100.00
10261;BME280;5175;42.606;23.388;2023-05-07T02:02:05;93953.84;;;9.61;100.00
10261;BME280;5175;42.606;23.388;2023-05-07T02:04:32;93945.84;;;9.71;100.00
10261;BME280;5175;42.606;23.388;2023-05-07T02:06:59;93945.63;;;9.58;100.00
10261;BME280;5175;42.606;23.388;2023-05-07T02:09:25;93956.78;;;9.70;100.00
10261;BME280;5175;42.606;23.388;2023-05-07T02:11:52;93948.78;;;9.75;100.00
10261;BME280;5175;42.606;23.388;2023-05-07T02:14:20;93942.16;;;9.62;100.00
10261;BME280;5175;42.606;23.388;2023-05-07T02:16:47;93925.66;;;9.55;100.00
10261;BME280;5175;42.606;23.388;2023-05-07T02:19:14;93932.81;;;9.60;100.00
10261;BME280;5175;42.606;23.388;2023-05-07T02:21:41;93928.84;;;9.57;100.00
10261;BME280;5175;42.606;23.388;2023-05-07T02:24:08;93925.88;;;9.64;100.00
10261;BME280;5175;42.606;23.388;2023-05-07T02:26:35;93929.88;;;9.66;100.00
10261;BME280;5175;42.606;23.388;2023-05-07T02:29:02;93928.56;;;9.54;100.00
10261;BME280;5175;42.606;23.388;2023-05-07T02:31:30;93931.75;;;9.61;100.00
10261;BME280;5175;42.606;23.388;2023-05-07T02:33:59;93935.75;;;9.48;100.00
10261;BME280;5175;42.606;23.388;2023-05-07T02:36:25;93924.28;;;9.48;100.00
10261;BME280;5175;42.606;23.388;2023-05-07T02:38:53;93941.59;;;9.50;100.00
10261;BME280;5175;42.606;23.388;2023-05-07T02:41:20;93924.84;;;9.39;100.00
10261;BME280;5175;42.606;23.388;2023-05-07T02:43:47;93931.50;;;9.47;100.00
10261;BME280;5175;42.606;23.388;2023-05-07T02:46:13;93935.50;;;9.39;100.00
10261;BME280;5175;42.606;23.388;2023-05-07T02:48:42;93932.28;;;9.42;100.00
10261;BME280;5175;42.606;23.388;2023-05-07T02:51:09;93933.91;;;9.43;100.00
10261;BME280;5175;42.606;23.388;2023-05-07T02:53:36;93903.81;;;9.23;100.00
10261;BME280;5175;42.606;23.388;2023-05-07T02:56:03;93932.56;;;9.36;100.00
10261;BME280;5175;42.606;23.388;2023-05-07T02:58:31;93930.19;;;9.34;100.00
10261;BME280;5175;42.606;23.388;2023-05-07T03:00:57;93938.94;;;9.40;100.00
10261;BME280;5175;42.606;23.388;2023-05-07T03:03:24;93938.94;;;9.40;100.00
10261;BME280;5175;42.606;23.388;2023-05-07T03:05:52;93936.84;;;9.42;100.00
10261;BME280;5175;42.606;23.388;2023-05-07T03:08:19;93922.19;;;9.34;100.00
10261;BME280;5175;42.606;23.388;2023-05-07T03:10:46;93940.28;;;9.42;100.00
10261;BME280;5175;42.606;23.388;2023-05-07T03:13:13;93954.41;;;9.38;100.00
10261;BME280;5175;42.606;23.388;2023-05-07T03:15:40;93944.03;;;9.47;100.00
10261;BME280;5175;42.606;23.388;2023-05-07T03:18:06;93944.56;;;9.38;100.00
10261;BME280;5175;42.606;23.388;2023-05-07T03:20:33;93950.41;;;9.35;100.00
10261;BME280;5175;42.606;23.388;2023-05-07T03:23:03;93950.69;;;9.44;100.00
10261;BME280;5175;42.606;23.388;2023-05-07T03:25:29;93965.31;;;9.47;100.00
10261;BME280;5175;42.606;23.388;2023-05-07T03:27:56;93960.78;;;9.57;100.00
10261;BME280;5175;42.606;23.388;2023-05-07T03:30:23;93949.34;;;9.47;100.00
10261;BME280;5175;42.606;23.388;2023-05-07T03:32:50;93962.13;;;9.50;100.00
10261;BME280;5175;42.606;23.388;2023-05-07T03:35:17;93953.34;;;9.54;100.00
10261;BME280;5175;42.606;23.388;2023-05-07T03:37:44;93955.44;;;9.72;100.00
10261;BME280;5175;42.606;23.388;2023-05-07T03:40:12;93937.88;;;9.56;100.00
10261;BME280;5175;42.606;23.388;2023-05-07T03:42:39;93956.78;;;9.70;100.00
10261;BME280;5175;42.606;23.388;2023-05-07T03:45:07;93963.97;;;9.69;100.00
10261;BME280;5175;42.606;23.388;2023-05-07T03:47:34;93964.50;;;9.71;100.00
10261;BME280;5175;42.606;23.388;2023-05-07T03:50:01;93950.66;;;9.69;100.00
10261;BME280;5175;42.606;23.388;2023-05-07T03:52:27;93967.69;;;9.88;100.00
10261;BME280;5175;42.606;23.388;2023-05-07T03:54:54;93977.50;;;10.08;100.00
10261;BME280;5175;42.606;23.388;2023-05-07T03:57:22;93980.16;;;10.23;100.00
10261;BME280;5175;42.606;23.388;2023-05-07T03:59:49;93977.97;;;10.40;100.00
10261;BME280;5175;42.606;23.388;2023-05-07T04:02:16;93979.84;;;10.45;100.00
10261;BME280;5175;42.606;23.388;2023-05-07T04:04:42;93983.53;;;10.49;100.00
10261;BME280;5175;42.606;23.388;2023-05-07T04:07:09;93984.38;;;10.39;100.00
10261;BME280;5175;42.606;23.388;2023-05-07T04:09:36;93991.56;;;10.44;100.00
10261;BME280;5175;42.606;23.388;2023-05-07T04:12:04;93997.38;;;10.56;100.00
10261;BME280;5175;42.606;23.388;2023-05-07T04:14:32;93992.13;;;10.36;100.00
10261;BME280;5175;42.606;23.388;2023-05-07T04:16:58;93999.06;;;10.37;100.00
10261;BME280;5175;42.606;23.388;2023-05-07T04:19:25;94003.25;;;10.53;100.00
10261;BME280;5175;42.606;23.388;2023-05-07T04:21:52;94003.25;;;10.63;100.00
10261;BME280;5175;42.606;23.388;2023-05-07T04:24:19;94002.97;;;10.59;100.00
10261;BME280;5175;42.606;23.388;2023-05-07T04:26:45;94013.34;;;10.71;100.00
10261;BME280;5175;42.606;23.388;2023-05-07T04:29:12;94010.72;;;10.56;100.00
10261;BME280;5175;42.606;23.388;2023-05-07T04:31:40;94015.22;;;10.76;100.00
10261;BME280;5175;42.606;23.388;2023-05-07T04:34:09;94008.25;;;10.75;100.00
10261;BME280;5175;42.606;23.388;2023-05-07T04:36:36;94018.88;;;10.85;100.00
10261;BME280;5175;42.606;23.388;2023-05-07T04:39:03;94036.19;;;10.92;100.00
10261;BME280;5175;42.606;23.388;2023-05-07T04:41:30;94035.09;;;11.03;100.00
10261;BME280;5175;42.606;23.388;2023-05-07T04:43:57;94039.53;;;11.23;100.00
10261;BME280;5175;42.606;23.388;2023-05-07T04:46:24;94034.34;;;11.42;100.00
10261;BME280;5175;42.606;23.388;2023-05-07T04:48:52;94035.59;;;11.54;100.00
10261;BME280;5175;42.606;23.388;2023-05-07T04:51:19;94044.59;;;11.63;100.00
10261;BME280;5175;42.606;23.388;2023-05-07T04:53:46;94027.25;;;11.61;100.00
10261;BME280;5175;42.606;23.388;2023-05-07T04:56:12;94039.16;;;11.83;100.00
10261;BME280;5175;42.606;23.388;2023-05-07T04:58:39;94043.09;;;11.91;100.00
10261;BME280;5175;42.606;23.388;2023-05-07T05:01:06;94032.38;;;11.96;100.00
10261;BME280;5175;42.606;23.388;2023-05-07T05:03:33;94039.66;;;11.85;100.00
10261;BME280;5175;42.606;23.388;2023-05-07T05:06:01;94041.94;;;12.02;100.00
10261;BME280;5175;42.606;23.388;2023-05-07T05:08:29;94035.06;;;12.20;100.00
10261;BME280;5175;42.606;23.388;2023-05-07T05:10:56;94014.44;;;12.25;100.00
10261;BME280;5175;42.606;23.388;2023-05-07T05:13:23;94031.03;;;12.27;100.00
10261;BME280;5175;42.606;23.388;2023-05-07T05:15:50;94037.94;;;12.57;100.00
10261;BME280;5175;42.606;23.388;2023-05-07T05:18:17;94018.91;;;12.58;100.00
10261;BME280;5175;42.606;23.388;2023-05-07T05:20:44;94020.31;;;12.51;100.00
10261;BME280;5175;42.606;23.388;2023-05-07T05:23:12;94002.25;;;12.14;100.00
10261;BME280;5175;42.606;23.388;2023-05-07T05:25:38;94019.94;;;12.63;100.00
10261;BME280;5175;42.606;23.388;2023-05-07T05:28:05;94015.03;;;12.70;100.00
10261;BME280;5175;42.606;23.388;2023-05-07T05:30:32;94026.81;;;12.92;100.00
10261;BME280;5175;42.606;23.388;2023-05-07T05:32:59;94037.28;;;13.12;100.00
10261;BME280;5175;42.606;23.388;2023-05-07T05:35:26;94031.81;;;13.23;100.00
10261;BME280;5175;42.606;23.388;2023-05-07T05:37:55;94033.84;;;13.31;100.00
10261;BME280;5175;42.606;23.388;2023-05-07T05:40:23;94040.91;;;13.45;100.00
10261;BME280;5175;42.606;23.388;2023-05-07T05:42:50;94044.00;;;13.71;100.00
10261;BME280;5175;42.606;23.388;2023-05-07T05:45:17;94047.38;;;13.76;100.00
10261;BME280;5175;42.606;23.388;2023-05-07T05:47:43;94029.34;;;13.82;100.00
10261;BME280;5175;42.606;23.388;2023-05-07T05:50:10;94053.16;;;14.02;100.00
10261;BME280;5175;42.606;23.388;2023-05-07T05:52:37;94046.63;;;14.08;100.00
10261;BME280;5175;42.606;23.388;2023-05-07T05:55:05;94043.59;;;14.15;100.00
10261;BME280;5175;42.606;23.388;2023-05-07T05:57:33;94055.22;;;14.43;100.00
10261;BME280;5175;42.606;23.388;2023-05-07T06:00:00;94050.47;;;14.53;100.00
10261;BME280;5175;42.606;23.388;2023-05-07T06:02:27;94049.13;;;14.37;100.00
10261;BME280;5175;42.606;23.388;2023-05-07T06:04:54;94053.94;;;14.54;100.00
10261;BME280;5175;42.606;23.388;2023-05-07T06:07:21;94057.34;;;14.73;100.00
10261;BME280;5175;42.606;23.388;2023-05-07T06:09:48;94060.56;;;14.88;100.00
10261;BME280;5175;42.606;23.388;2023-05-07T06:12:14;94060.16;;;15.09;100.00
10261;BME280;5175;42.606;23.388;2023-05-07T06:14:44;94065.59;;;15.31;100.00
10261;BME280;5175;42.606;23.388;2023-05-07T06:17:10;94058.34;;;15.18;100.00
10261;BME280;5175;42.606;23.388;2023-05-07T06:19:37;94067.69;;;15.34;100.00
10261;BME280;5175;42.606;23.388;2023-05-07T06:22:04;94060.53;;;15.56;100.00
10261;BME280;5175;42.606;23.388;2023-05-07T06:24:30;94058.28;;;15.72;100.00
10261;BME280;5175;42.606;23.388;2023-05-07T06:26:57;94046.69;;;15.85;100.00
10261;BME280;5175;42.606;23.388;2023-05-07T06:29:24;94055.13;;;15.92;100.00
10261;BME280;5175;42.606;23.388;2023-05-07T06:31:53;94055.56;;;16.08;100.00
10261;BME280;5175;42.606;23.388;2023-05-07T06:34:20;94051.56;;;16.19;100.00
10261;BME280;5175;42.606;23.388;2023-05-07T06:36:47;94060.06;;;16.35;100.00
10261;BME280;5175;42.606;23.388;2023-05-07T06:39:13;94056.56;;;16.34;100.00
10261;BME280;5175;42.606;23.388;2023-05-07T06:41:40;94048.34;;;16.39;100.00
10261;BME280;5175;42.606;23.388;2023-05-07T06:44:07;94058.84;;;16.63;100.00
10261;BME280;5175;42.606;23.388;2023-05-07T06:46:34;94041.81;;;16.54;89.62
10261;BME280;5175;42.606;23.388;2023-05-07T06:49:02;94037.34;;;16.71;92.16
10261;BME280;5175;42.606;23.388;2023-05-07T06:51:29;94044.88;;;17.00;92.26
10261;BME280;5175;42.606;23.388;2023-05-07T06:53:55;94035.66;;;16.92;89.90
10261;BME280;5175;42.606;23.388;2023-05-07T06:56:22;94045.59;;;17.14;90.92
10261;BME280;5175;42.606;23.388;2023-05-07T06:58:49;94042.94;;;17.31;89.52
10261;BME280;5175;42.606;23.388;2023-05-07T07:01:16;94039.44;;;17.22;88.27
10261;BME280;5175;42.606;23.388;2023-05-07T07:03:43;94036.91;;;17.34;87.82
10261;BME280;5175;42.606;23.388;2023-05-07T07:06:11;94045.84;;;17.52;85.21
10261;BME280;5175;42.606;23.388;2023-05-07T07:08:38;94060.31;;;17.65;83.76
10261;BME280;5175;42.606;23.388;2023-05-07T07:11:05;94050.81;;;17.67;81.31
10261;BME280;5175;42.606;23.388;2023-05-07T07:13:32;94054.94;;;17.73;80.08
10261;BME280;5175;42.606;23.388;2023-05-07T07:15:59;94045.75;;;17.74;78.84
10261;BME280;5175;42.606;23.388;2023-05-07T07:18:26;94050.03;;;17.92;78.71
10261;BME280;5175;42.606;23.388;2023-05-07T07:20:53;94047.66;;;18.17;78.32
10261;BME280;5175;42.606;23.388;2023-05-07T07:23:21;94042.59;;;18.06;76.51
10261;BME280;5175;42.606;23.388;2023-05-07T07:25:48;94041.44;;;17.65;78.21
10261;BME280;5175;42.606;23.388;2023-05-07T07:28:14;94046.41;;;18.23;76.13
10261;BME280;5175;42.606;23.388;2023-05-07T07:30:41;94036.38;;;18.23;74.81
10261;BME280;5175;42.606;23.388;2023-05-07T07:33:08;94042.56;;;18.49;74.73
10261;BME280;5175;42.606;23.388;2023-05-07T07:35:35;94001.41;;;18.27;75.27
10261;BME280;5175;42.606;23.388;2023-05-07T07:38:02;94039.97;;;18.70;75.29
10261;BME280;5175;42.606;23.388;2023-05-07T07:40:30;94055.66;;;18.94;73.40
10261;BME280;5175;42.606;23.388;2023-05-07T07:42:57;94052.69;;;19.16;70.68
10261;BME280;5175;42.606;23.388;2023-05-07T07:45:24;94061.88;;;19.23;69.54
10261;BME280;5175;42.606;23.388;2023-05-07T07:47:51;94062.88;;;19.19;67.40
10261;BME280;5175;42.606;23.388;2023-05-07T07:50:18;94059.06;;;19.11;67.84
10261;BME280;5175;42.606;23.388;2023-05-07T07:52:45;94062.59;;;19.12;67.09
10261;BME280;5175;42.606;23.388;2023-05-07T07:55:12;94059.94;;;19.41;67.37
10261;BME280;5175;42.606;23.388;2023-05-07T07:57:40;94056.88;;;19.51;66.27
10261;BME280;5175;42.606;23.388;2023-05-07T08:00:08;94065.59;;;19.77;64.72
10261;BME280;5175;42.606;23.388;2023-05-07T08:02:35;94059.06;;;19.78;64.58
10261;BME280;5175;42.606;23.388;2023-05-07T08:05:02;94063.69;;;19.78;66.68
10261;BME280;5175;42.606;23.388;2023-05-07T08:07:29;94070.94;;;19.65;64.27
10261;BME280;5175;42.606;23.388;2023-05-07T08:09:56;94052.16;;;19.31;65.92
10261;BME280;5175;42.606;23.388;2023-05-07T08:12:22;94053.16;;;19.56;65.45
10261;BME280;5175;42.606;23.388;2023-05-07T08:14:51;94061.97;;;19.73;64.91
10261;BME280;5175;42.606;23.388;2023-05-07T08:17:18;94058.75;;;20.00;62.78
10261;BME280;5175;42.606;23.388;2023-05-07T08:19:47;94062.91;;;20.19;61.66
10261;BME280;5175;42.606;23.388;2023-05-07T08:22:14;94046.81;;;20.43;62.59
10261;BME280;5175;42.606;23.388;2023-05-07T08:24:43;94054.88;;;20.51;62.71
10261;BME280;5175;42.606;23.388;2023-05-07T08:27:12;94052.44;;;20.71;59.24
10261;BME280;5175;42.606;23.388;2023-05-07T08:29:39;94051.75;;;21.06;57.31
10261;BME280;5175;42.606;23.388;2023-05-07T08:32:07;94049.75;;;21.15;56.60
10261;BME280;5175;42.606;23.388;2023-05-07T08:34:34;94047.91;;;21.07;56.84
10261;BME280;5175;42.606;23.388;2023-05-07T08:37:00;94045.34;;;20.90;57.12
10261;BME280;5175;42.606;23.388;2023-05-07T08:39:27;94045.22;;;21.07;58.58
10261;BME280;5175;42.606;23.388;2023-05-07T08:41:55;94047.44;;;21.05;57.38
10261;BME280;5175;42.606;23.388;2023-05-07T08:44:26;94048.28;;;20.85;57.37
10261;BME280;5175;42.606;23.388;2023-05-07T08:46:53;94048.25;;;21.06;54.96
10261;BME280;5175;42.606;23.388;2023-05-07T08:49:23;94044.72;;;21.05;55.53
10261;BME280;5175;42.606;23.388;2023-05-07T08:51:50;94034.81;;;21.09;56.73
10261;BME280;5175;42.606;23.388;2023-05-07T08:54:17;94034.44;;;21.11;55.31
10261;BME280;5175;42.606;23.388;2023-05-07T08:56:45;94030.75;;;21.15;53.03
10261;BME280;5175;42.606;23.388;2023-05-07T08:59:12;94024.63;;;21.55;52.69
10261;BME280;5175;42.606;23.388;2023-05-07T09:01:38;94038.63;;;21.81;48.84
10261;BME280;5175;42.606;23.388;2023-05-07T09:04:05;94034.44;;;22.08;49.96
10261;BME280;5175;42.606;23.388;2023-05-07T09:06:34;94034.81;;;22.34;50.35
10261;BME280;5175;42.606;23.388;2023-05-07T09:09:07;94030.38;;;22.29;51.10
10261;BME280;5175;42.606;23.388;2023-05-07T09:11:33;94032.78;;;22.19;51.03
10261;BME280;5175;42.606;23.388;2023-05-07T09:14:00;94017.25;;;21.92;50.33
10261;BME280;5175;42.606;23.388;2023-05-07T09:16:29;94027.88;;;21.84;53.05
10261;BME280;5175;42.606;23.388;2023-05-07T09:18:58;94022.69;;;21.79;53.08
10261;BME280;5175;42.606;23.388;2023-05-07T09:21:25;94017.09;;;22.12;49.80
10261;BME280;5175;42.606;23.388;2023-05-07T09:23:54;94016.25;;;22.24;48.87
10261;BME280;5175;42.606;23.388;2023-05-07T09:26:22;94024.31;;;22.20;47.90
10261;BME280;5175;42.606;23.388;2023-05-07T09:28:49;94003.94;;;22.42;48.00
10261;BME280;5175;42.606;23.388;2023-05-07T09:31:17;94007.50;;;22.58;46.14
10261;BME280;5175;42.606;23.388;2023-05-07T09:33:44;94020.31;;;22.30;46.09
10261;BME280;5175;42.606;23.388;2023-05-07T09:36:11;94011.59;;;22.64;46.81
10261;BME280;5175;42.606;23.388;2023-05-07T09:38:38;94006.63;;;22.82;45.25
10261;BME280;5175;42.606;23.388;2023-05-07T09:41:08;94010.72;;;22.76;45.30
10261;BME280;5175;42.606;23.388;2023-05-07T09:43:36;94005.47;;;22.98;43.76
10261;BME280;5175;42.606;23.388;2023-05-07T09:46:06;94006.81;;;23.20;43.85
10261;BME280;5175;42.606;23.388;2023-05-07T09:48:37;94005.41;;;23.26;43.66
10261;BME280;5175;42.606;23.388;2023-05-07T09:51:11;94007.06;;;23.31;42.80
10261;BME280;5175;42.606;23.388;2023-05-07T09:53:43;94004.69;;;23.29;42.56
10261;BME280;5175;42.606;23.388;2023-05-07T09:56:13;93990.38;;;23.01;42.93
10261;BME280;5175;42.606;23.388;2023-05-07T09:58:41;94000.56;;;23.20;45.53
10261;BME280;5175;42.606;23.388;2023-05-07T10:01:10;93979.69;;;23.24;44.72
10261;BME280;5175;42.606;23.388;2023-05-07T10:03:37;93994.16;;;23.59;44.38
10261;BME280;5175;42.606;23.388;2023-05-07T10:06:07;93994.31;;;23.66;42.43
10261;BME280;5175;42.606;23.388;2023-05-07T10:08:35;93976.97;;;24.09;42.78
10261;BME280;5175;42.606;23.388;2023-05-07T10:11:04;93993.56;;;24.39;41.02
10261;BME280;5175;42.606;23.388;2023-05-07T10:13:33;93987.63;;;23.63;40.77
10261;BME280;5175;42.606;23.388;2023-05-07T10:16:01;93982.84;;;23.76;42.08
10261;BME280;5175;42.606;23.388;2023-05-07T10:18:30;93985.34;;;23.65;42.59
10261;BME280;5175;42.606;23.388;2023-05-07T10:21:02;93970.34;;;22.93;43.31
10261;BME280;5175;42.606;23.388;2023-05-07T10:23:31;93983.91;;;23.05;41.86
10261;BME280;5175;42.606;23.388;2023-05-07T10:25:59;93975.53;;;23.45;42.32
10261;BME280;5175;42.606;23.388;2023-05-07T10:28:29;93978.00;;;23.85;42.70
10261;BME280;5175;42.606;23.388;2023-05-07T10:31:15;93974.72;;;23.60;41.26
10261;BME280;5175;42.606;23.388;2023-05-07T10:33:46;93975.28;;;23.85;38.24
10261;BME280;5175;42.606;23.388;2023-05-07T10:36:16;93971.66;;;23.62;39.64
10261;BME280;5175;42.606;23.388;2023-05-07T10:38:43;93965.00;;;23.79;38.73
10261;BME280;5175;42.606;23.388;2023-05-07T10:41:11;93959.84;;;23.74;38.79
10261;BME280;5175;42.606;23.388;2023-05-07T10:43:39;93956.91;;;23.47;40.94
10261;BME280;5175;42.606;23.388;2023-05-07T10:46:16;93956.69;;;23.72;39.71
10261;BME280;5175;42.606;23.388;2023-05-07T10:49:16;93963.00;;;23.76;40.68
10261;BME280;5175;42.606;23.388;2023-05-07T10:51:43;93952.22;;;24.17;40.01
10261;BME280;5175;42.606;23.388;2023-05-07T10:54:22;93954.88;;;24.14;41.46
10261;BME280;5175;42.606;23.388;2023-05-07T10:56:50;93951.94;;;24.22;40.03
10261;BME280;5175;42.606;23.388;2023-05-07T10:59:34;93962.56;;;24.27;39.34
10261;BME280;5175;42.606;23.388;2023-05-07T11:02:09;93962.28;;;23.79;40.06
10261;BME280;5175;42.606;23.388;2023-05-07T11:04:37;93960.53;;;23.71;40.48
10261;BME280;5175;42.606;23.388;2023-05-07T11:07:26;93964.63;;;23.61;39.14
10261;BME280;5175;42.606;23.388;2023-05-07T11:10:03;93960.69;;;24.12;40.07
10261;BME280;5175;42.606;23.388;2023-05-07T11:12:51;93947.69;;;24.44;40.43
10261;BME280;5175;42.606;23.388;2023-05-07T11:15:41;93957.25;;;24.76;40.57
10261;BME280;5175;42.606;23.388;2023-05-07T11:18:12;93956.25;;;25.07;38.79
10261;BME280;5175;42.606;23.388;2023-05-07T11:20:53;93961.06;;;25.14;38.36
10261;BME280;5175;42.606;23.388;2023-05-07T11:23:57;93954.00;;;25.13;37.74
10261;BME280;5175;42.606;23.388;2023-05-07T11:26:24;93948.97;;;24.92;37.26
10261;BME280;5175;42.606;23.388;2023-05-07T11:28:52;93948.13;;;24.46;38.05
10261;BME280;5175;42.606;23.388;2023-05-07T11:31:24;93944.03;;;24.17;39.09
10261;BME280;5175;42.606;23.388;2023-05-07T11:33:54;93946.19;;;24.88;41.10
10261;BME280;5175;42.606;23.388;2023-05-07T11:36:23;93944.97;;;25.09;39.74
10261;BME280;5175;42.606;23.388;2023-05-07T11:38:51;93945.69;;;25.28;39.13
10261;BME280;5175;42.606;23.388;2023-05-07T11:41:18;93932.44;;;25.30;40.95
10261;BME280;5175;42.606;23.388;2023-05-07T11:43:59;93941.94;;;25.63;37.50
10261;BME280;5175;42.606;23.388;2023-05-07T11:46:27;93945.97;;;25.46;35.75
10261;BME280;5175;42.606;23.388;2023-05-07T11:49:01;93929.84;;;25.15;36.76
10261;BME280;5175;42.606;23.388;2023-05-07T11:51:28;93938.88;;;25.41;37.86
10261;BME280;5175;42.606;23.388;2023-05-07T11:53:55;93945.38;;;25.33;35.40
10261;BME280;5175;42.606;23.388;2023-05-07T11:56:22;93940.28;;;25.09;37.51
10261;BME280;5175;42.606;23.388;2023-05-07T11:58:49;93949.16;;;25.25;39.73
10261;BME280;5175;42.606;23.388;2023-05-07T12:01:17;93941.91;;;25.36;38.88
10261;BME280;5175;42.606;23.388;2023-05-07T12:03:44;93938.84;;;25.64;37.30
10261;BME280;5175;42.606;23.388;2023-05-07T12:06:14;93928.72;;;25.68;36.56
10261;BME280;5175;42.606;23.388;2023-05-07T12:08:43;93935.28;;;25.60;34.68
10261;BME280;5175;42.606;23.388;2023-05-07T12:11:13;93930.38;;;25.73;37.49
10261;BME280;5175;42.606;23.388;2023-05-07T12:13:40;93923.31;;;26.01;37.95
10261;BME280;5175;42.606;23.388;2023-05-07T12:16:07;93911.63;;;26.04;35.51
10261;BME280;5175;42.606;23.388;2023-05-07T12:18:35;93922.47;;;26.27;35.16
10261;BME280;5175;42.606;23.388;2023-05-07T12:21:04;93921.63;;;25.90;35.52
10261;BME280;5175;42.606;23.388;2023-05-07T12:23:33;93918.75;;;26.09;37.01
10261;BME280;5175;42.606;23.388;2023-05-07T12:26:00;93921.53;;;26.46;35.25
10261;BME280;5175;42.606;23.388;2023-05-07T12:28:28;93924.44;;;26.60;33.68
10261;BME280;5175;42.606;23.388;2023-05-07T12:30:56;93903.03;;;26.02;34.01
10261;BME280;5175;42.606;23.388;2023-05-07T12:33:24;93899.09;;;26.00;38.55
10261;BME280;5175;42.606;23.388;2023-05-07T12:35:57;93903.69;;;26.59;36.13
10261;BME280;5175;42.606;23.388;2023-05-07T12:38:24;93901.72;;;26.23;32.52
10261;BME280;5175;42.606;23.388;2023-05-07T12:40:54;93901.69;;;25.89;34.05
10261;BME280;5175;42.606;23.388;2023-05-07T12:43:24;93890.03;;;25.40;33.71
10261;BME280;5175;42.606;23.388;2023-05-07T12:45:54;93884.53;;;25.10;34.78
10261;BME280;5175;42.606;23.388;2023-05-07T12:48:21;93891.81;;;25.52;34.50
10261;BME280;5175;42.606;23.388;2023-05-07T12:50:49;93874.19;;;25.23;34.19
10261;BME280;5175;42.606;23.388;2023-05-07T12:53:16;93886.44;;;25.59;35.41
10261;BME280;5175;42.606;23.388;2023-05-07T13:16:10;93858.75;;;27.07;34.51
10261;BME280;5175;42.606;23.388;2023-05-07T13:18:39;93856.50;;;27.16;33.18
10261;BME280;5175;42.606;23.388;2023-05-07T13:21:06;93822.41;;;27.10;32.90
10261;BME280;5175;42.606;23.388;2023-05-07T13:23:33;93858.97;;;27.35;33.90